Time;durP1;ratioP1;P1;durP2;ratioP2;P2;SDS_P1;SDS_P2;PMS_P1;PMS_P2;Temp;Humidity;BMP_temperature;BMP_pressure;BME280_temperature;BME280_humidity;BME280_pressure;Samples;Min_cycle;Max_cycle;Signal;HPM_P1;HPM_P2
2022/03/18 00:02:58;;;;;;;42.20;38.00;;;;;;;11.87;54.68;99513.97;8318013;28;20633;-61
2022/03/18 00:07:01;;;;;;;44.33;39.77;;;;;;;11.77;54.97;99515.94;8318640;28;20280;-61
2022/03/18 00:11:05;;;;;;;43.20;38.93;;;;;;;11.64;55.39;99517.97;8318203;28;20240;-60
2022/03/18 00:15:11;;;;;;;43.17;38.97;;;;;;;11.54;55.79;99525.13;8318699;28;20543;-60
2022/03/18 00:19:14;;;;;;;42.97;38.67;;;;;;;11.34;56.46;99528.16;8318258;28;20426;-61
2022/03/18 00:23:17;;;;;;;43.67;39.17;;;;;;;11.58;55.72;99523.31;8318420;28;20240;-61
2022/03/18 00:27:20;;;;;;;41.63;37.20;;;;;;;11.57;55.48;99523.34;8318373;28;20339;-60
2022/03/18 00:31:24;;;;;;;42.80;38.20;;;;;;;11.58;55.80;99530.25;8318292;28;20236;-60
2022/03/18 00:35:27;;;;;;;42.17;37.87;;;;;;;11.59;55.38;99531.94;8317810;28;20328;-61
2022/03/18 00:39:30;;;;;;;41.33;37.33;;;;;;;11.61;55.37;99536.19;8317824;28;20241;-60
2022/03/18 00:43:34;;;;;;;39.20;34.73;;;;;;;11.48;55.81;99532.19;8316985;28;20221;-61
2022/03/18 00:52:05;;;;;;;40.23;36.13;;;;;;;11.44;55.41;99530.56;8317268;28;20232;-60
2022/03/18 00:56:08;;;;;;;38.07;34.13;;;;;;;11.36;55.75;99538.50;8317104;28;20244;-61
2022/03/18 01:00:12;;;;;;;38.93;34.73;;;;;;;11.47;55.14;99539.13;8317199;28;20235;-60
2022/03/18 01:04:17;;;;;;;35.60;31.83;;;;;;;11.52;55.09;99549.41;8316959;28;20236;-60
2022/03/18 01:08:20;;;;;;;39.07;34.97;;;;;;;11.22;55.98;99562.16;8316825;28;20237;-61
2022/03/18 01:12:23;;;;;;;35.67;31.83;;;;;;;11.29;55.41;99552.50;8315682;28;20598;-61
2022/03/18 01:16:26;;;;;;;35.10;31.40;;;;;;;11.14;55.87;99553.72;8315444;28;20264;-61
2022/03/18 01:20:31;;;;;;;36.90;32.50;;;;;;;10.89;56.38;99559.41;8314864;28;20291;-60
2022/03/18 01:24:34;;;;;;;35.67;31.97;;;;;;;11.10;56.16;99559.81;8314464;28;20236;-61
2022/03/18 01:28:38;;;;;;;35.57;31.77;;;;;;;11.06;56.11;99556.47;8314737;28;20241;-61
2022/03/18 01:32:41;;;;;;;37.33;32.40;;;;;;;10.95;56.67;99559.28;8314168;28;20236;-61
2022/03/18 01:36:45;;;;;;;36.07;32.27;;;;;;;11.10;55.78;99555.50;8314525;28;20243;-61
2022/03/18 01:40:48;;;;;;;35.67;31.87;;;;;;;11.15;56.00;99565.78;8314775;28;20243;-61
2022/03/18 01:44:51;;;;;;;36.63;32.63;;;;;;;11.06;56.37;99573.75;8315926;28;20235;-61
2022/03/18 01:48:57;;;;;;;34.30;30.80;;;;;;;11.01;56.08;99576.44;8316784;28;20430;-61
2022/03/18 01:53:01;;;;;;;36.27;32.23;;;;;;;11.00;56.32;99581.66;8316290;28;20208;-61
2022/03/18 01:57:05;;;;;;;36.85;33.08;;;;;;;11.51;54.67;99579.69;8314681;28;20416;-60
2022/03/18 02:01:08;;;;;;;38.53;31.87;;;;;;;11.13;56.03;99585.69;8316130;28;20205;-60
2022/03/18 02:05:11;;;;;;;34.30;30.23;;;;;;;11.08;56.26;99598.78;8314310;28;20228;-60
2022/03/18 02:09:16;;;;;;;33.40;29.80;;;;;;;11.32;55.55;99597.38;8273872;28;1142066;-60
2022/03/18 02:13:19;;;;;;;34.63;30.77;;;;;;;11.12;56.19;99595.22;8315154;28;20232;-60
2022/03/18 02:17:22;;;;;;;32.77;29.20;;;;;;;11.01;56.50;99610.13;8315127;28;20559;-60
2022/03/18 02:21:28;;;;;;;33.03;29.53;;;;;;;11.04;56.53;99604.03;8314886;28;20566;-60
2022/03/18 02:25:33;;;;;;;31.90;28.30;;;;;;;11.04;56.61;99599.72;8314686;28;20528;-62
2022/03/18 02:29:36;;;;;;;30.67;27.27;;;;;;;11.09;56.23;99608.25;8314566;28;20526;-61
2022/03/18 02:33:39;;;;;;;30.67;26.60;;;;;;;10.91;56.67;99617.25;8314886;28;20236;-60
2022/03/18 02:37:41;;;;;;;26.90;24.10;;;;;;;10.89;57.06;99612.97;8314968;28;20426;-60
2022/03/18 02:41:46;;;;;;;27.80;24.80;;;;;;;10.90;56.85;99614.69;8314520;28;20240;-60
2022/03/18 02:45:49;;;;;;;28.03;25.13;;;;;;;10.68;57.24;99612.50;8318885;28;20530;-60
2022/03/18 02:49:52;;;;;;;29.23;25.83;;;;;;;10.72;57.57;99613.31;8321414;28;20452;-60
2022/03/18 02:53:55;;;;;;;29.37;25.90;;;;;;;10.69;57.67;99615.94;8320857;28;20523;-60
2022/03/18 02:58:00;;;;;;;29.27;25.50;;;;;;;10.81;56.94;99620.03;8320763;28;20229;-60
2022/03/18 03:02:03;;;;;;;28.63;25.53;;;;;;;10.80;56.89;99628.72;8320543;28;20291;-60
2022/03/18 03:10:28;;;;;;;30.53;24.87;;;;;;;10.63;57.35;99636.78;8320169;28;20241;-60
2022/03/18 03:14:32;;;;;;;29.37;24.77;;;;;;;10.49;57.43;99634.41;8319924;28;20413;-61
2022/03/18 03:18:35;;;;;;;26.47;23.53;;;;;;;10.45;57.63;99637.94;8320060;28;20241;-60
2022/03/18 03:22:38;;;;;;;27.73;24.73;;;;;;;10.61;57.10;99651.50;8320139;28;20232;-60
2022/03/18 03:26:41;;;;;;;26.53;23.50;;;;;;;10.69;56.95;99658.25;8320139;28;20558;-60
2022/03/18 03:30:46;;;;;;;27.80;23.67;;;;;;;10.46;57.53;99663.81;8319666;28;20233;-60
2022/03/18 03:34:49;;;;;;;27.70;24.73;;;;;;;10.62;56.84;99671.34;8319964;28;20256;-60
2022/03/18 03:38:52;;;;;;;27.87;23.13;;;;;;;10.70;56.67;99669.47;8320032;28;20243;-60
2022/03/18 03:42:55;;;;;;;26.63;22.50;;;;;;;10.75;56.32;99683.19;8319537;28;20256;-60
2022/03/18 03:46:59;;;;;;;25.80;22.90;;;;;;;10.43;56.94;99683.75;8319169;28;20240;-60
2022/03/18 03:51:03;;;;;;;26.43;22.43;;;;;;;10.44;57.27;99685.47;8319551;28;20251;-60
2022/03/18 03:55:07;;;;;;;27.73;22.70;;;;;;;10.44;56.92;99688.91;8318983;28;20558;-60
2022/03/18 03:59:10;;;;;;;24.60;22.00;;;;;;;10.44;57.24;99688.06;8319597;28;20233;-60
2022/03/18 04:03:15;;;;;;;24.57;21.20;;;;;;;10.64;56.56;99698.06;8319179;28;20233;-60
2022/03/18 04:07:18;;;;;;;27.00;22.43;;;;;;;10.49;56.67;99692.28;8319143;28;20268;-60
2022/03/18 04:11:21;;;;;;;25.30;21.03;;;;;;;10.47;57.29;99704.41;8318544;28;20248;-60
2022/03/18 04:15:24;;;;;;;26.10;21.17;;;;;;;10.71;56.52;99712.63;8318832;28;20237;-60
2022/03/18 04:19:29;;;;;;;23.77;21.17;;;;;;;10.64;56.80;99721.38;8318551;28;20237;-60
2022/03/18 04:23:32;;;;;;;25.17;21.43;;;;;;;10.65;56.57;99723.13;8317971;28;20225;-60
2022/03/18 04:27:35;;;;;;;27.70;22.87;;;;;;;10.46;56.85;99732.91;8317674;28;20241;-61
2022/03/18 04:31:38;;;;;;;26.77;21.77;;;;;;;10.62;56.60;99738.69;8318177;28;20237;-61
2022/03/18 04:35:44;;;;;;;30.13;22.37;;;;;;;10.49;57.13;99749.28;8317723;28;20237;-60
2022/03/18 04:39:47;;;;;;;29.07;22.97;;;;;;;10.55;56.48;99764.72;8317893;28;20574;-60
2022/03/18 04:43:50;;;;;;;31.07;22.60;;;;;;;10.46;56.59;99764.00;8317289;28;20225;-60
2022/03/18 04:47:53;;;;;;;27.20;22.77;;;;;;;10.53;56.25;99765.63;8317566;28;20239;-60
2022/03/18 04:51:57;;;;;;;29.00;22.47;;;;;;;10.63;56.10;99771.50;8317490;28;20236;-60
2022/03/18 04:56:00;;;;;;;26.63;21.20;;;;;;;10.63;55.94;99777.53;8317077;28;20532;-60
2022/03/18 05:00:05;;;;;;;27.67;20.90;;;;;;;10.42;56.62;99783.06;8317101;28;20244;-60
2022/03/18 05:04:08;;;;;;;24.90;19.73;;;;;;;10.52;56.40;99784.63;8309591;28;20557;-60
2022/03/18 05:08:12;;;;;;;24.00;19.70;;;;;;;10.47;56.15;99779.53;8296942;28;20240;-60
2022/03/18 05:12:16;;;;;;;24.50;19.90;;;;;;;10.40;56.56;99784.81;8299709;28;20244;-60
2022/03/18 05:16:25;;;;;;;25.13;20.77;;;;;;;10.53;55.76;99788.94;8284370;28;20264;-60
2022/03/18 05:20:29;;;;;;;25.93;20.90;;;;;;;10.55;55.69;99794.94;8284367;28;20352;-60
2022/03/18 05:24:33;;;;;;;26.00;20.70;;;;;;;10.55;55.69;99792.34;8283339;28;20225;-60
2022/03/18 05:28:37;;;;;;;26.50;20.23;;;;;;;10.57;55.32;99807.00;8283597;28;20233;-60
2022/03/18 05:32:41;;;;;;;24.87;20.87;;;;;;;10.52;55.51;99823.47;8283706;28;20568;-60
2022/03/18 05:36:45;;;;;;;25.37;21.37;;;;;;;10.45;55.32;99827.03;8283410;28;20239;-60
2022/03/18 05:40:49;;;;;;;28.53;21.53;;;;;;;10.49;55.17;99829.56;8282851;28;20238;-60
2022/03/18 05:44:52;;;;;;;28.47;22.07;;;;;;;10.37;55.69;99830.56;8298035;28;20228;-59
2022/03/18 05:48:55;;;;;;;27.87;21.90;;;;;;;10.22;55.68;99830.75;8316048;28;20232;-59
2022/03/18 05:52:58;;;;;;;28.10;21.33;;;;;;;10.13;56.62;99833.47;8315336;28;20407;-60
2022/03/18 05:57:02;;;;;;;30.03;22.77;;;;;;;10.26;55.74;99841.94;8314907;28;20232;-60
2022/03/18 06:01:05;;;;;;;29.40;22.67;;;;;;;10.02;56.82;99849.13;8315211;28;20238;-60
2022/03/18 06:05:10;;;;;;;29.70;23.20;;;;;;;10.37;55.47;99859.06;8314945;28;20239;-59
2022/03/18 06:13:35;;;;;;;29.77;23.50;;;;;;;10.12;55.77;99861.09;8314555;28;20244;-60
2022/03/18 06:17:38;;;;;;;29.93;22.97;;;;;;;10.30;55.73;99862.63;8314614;28;20243;-60
2022/03/18 06:21:41;;;;;;;28.87;22.57;;;;;;;10.52;54.54;99870.94;8314360;28;20232;-60
2022/03/18 06:25:44;;;;;;;31.47;24.03;;;;;;;10.37;55.17;99869.41;8314268;28;20233;-60
2022/03/18 06:29:48;;;;;;;29.70;22.00;;;;;;;10.39;55.34;99878.91;8314519;28;20248;-60
2022/03/18 06:33:52;;;;;;;29.47;23.07;;;;;;;10.54;54.81;99876.97;8314495;28;20259;-60
2022/03/18 06:37:55;;;;;;;31.77;23.20;;;;;;;10.40;55.02;99886.69;8314652;28;20240;-60
2022/03/18 06:41:58;;;;;;;28.57;21.47;;;;;;;10.32;55.30;99897.13;8314419;28;20239;-59
2022/03/18 06:46:03;;;;;;;26.93;22.53;;;;;;;10.42;55.03;99899.63;8314536;28;20232;-60
2022/03/18 06:50:08;;;;;;;26.37;21.67;;;;;;;10.46;54.79;99907.31;8314285;28;20241;-60
2022/03/18 06:54:12;;;;;;;26.37;21.73;;;;;;;10.51;54.26;99912.44;8314430;28;20229;-60
2022/03/18 06:58:15;;;;;;;30.00;21.60;;;;;;;10.55;54.42;99908.94;8314120;28;20583;-60
2022/03/18 07:02:20;;;;;;;30.20;20.70;;;;;;;10.50;54.64;99918.50;8313930;28;20232;-60
2022/03/18 07:06:23;;;;;;;26.67;20.57;;;;;;;10.67;53.83;99915.69;8314352;28;20233;-59
2022/03/18 07:10:26;;;;;;;26.30;20.30;;;;;;;10.75;53.76;99913.84;8314070;28;20240;-60
2022/03/18 07:14:29;;;;;;;24.20;20.20;;;;;;;10.57;54.36;99923.56;8314076;28;20239;-60
2022/03/18 07:18:33;;;;;;;25.27;19.87;;;;;;;10.56;54.42;99936.53;8313522;28;20255;-60
2022/03/18 07:22:36;;;;;;;24.80;18.83;;;;;;;10.24;54.90;99929.13;8313969;28;20243;-60
2022/03/18 07:26:40;;;;;;;24.60;18.90;;;;;;;10.79;53.64;99944.00;8299268;28;20234;-59
2022/03/18 07:30:44;;;;;;;25.10;18.63;;;;;;;10.79;53.81;99932.78;8283503;28;20309;-60
2022/03/18 07:34:49;;;;;;;23.03;19.17;;;;;;;10.68;53.62;99944.16;8287124;28;20238;-60
2022/03/18 07:38:52;;;;;;;23.77;18.40;;;;;;;10.61;53.98;99960.66;8287007;28;20237;-59
2022/03/18 07:42:56;;;;;;;21.47;18.07;;;;;;;10.90;53.51;99959.41;8286624;28;20233;-60
2022/03/18 07:46:59;;;;;;;23.27;18.30;;;;;;;10.66;53.82;99958.88;8318545;28;20228;-59
2022/03/18 07:51:03;;;;;;;25.37;19.87;;;;;;;10.28;54.09;99960.16;8318703;28;20233;-60
2022/03/18 07:55:07;;;;;;;20.73;18.30;;;;;;;10.88;52.78;99967.22;8319115;28;20229;-59
2022/03/18 07:59:10;;;;;;;22.27;19.00;;;;;;;10.91;52.89;99969.78;8318912;28;20241;-59
2022/03/18 08:03:13;;;;;;;19.27;16.90;;;;;;;11.09;52.80;99972.97;8318615;28;20237;-60
2022/03/18 08:07:18;;;;;;;22.33;18.07;;;;;;;11.03;52.74;99975.66;8318514;28;20233;-60
2022/03/18 08:11:21;;;;;;;20.90;17.20;;;;;;;11.24;52.39;99979.69;8318270;28;20251;-59
2022/03/18 08:15:28;;;;;;;19.13;15.60;;;;;;;11.23;52.15;99981.44;8318538;28;20241;-59
2022/03/18 08:19:31;;;;;;;18.43;15.33;;;;;;;11.48;51.81;99992.28;8317840;28;20229;-63
2022/03/18 08:23:35;;;;;;;19.73;16.70;;;;;;;11.37;51.54;100001.97;8318483;28;20236;-60
2022/03/18 08:27:38;;;;;;;21.33;17.57;;;;;;;11.38;51.56;100006.25;8318292;28;20539;-60
2022/03/18 08:31:41;;;;;;;22.60;17.90;;;;;;;11.60;50.27;100006.78;8317736;28;20241;-60
2022/03/18 08:35:44;;;;;;;24.37;17.83;;;;;;;11.73;50.32;100005.72;8318171;28;20295;-60
2022/03/18 08:39:49;;;;;;;21.13;16.37;;;;;;;12.12;49.43;100010.25;8318340;28;20243;-59
2022/03/18 08:43:52;;;;;;;18.77;16.77;;;;;;;12.42;49.30;100008.84;8316572;28;20235;-60
2022/03/18 08:47:55;;;;;;;29.50;19.67;;;;;;;12.73;47.77;100015.16;8318107;28;20504;-60
2022/03/18 08:51:58;;;;;;;22.60;16.23;;;;;;;12.40;48.35;100015.81;8317549;28;20437;-60
2022/03/18 08:56:02;;;;;;;20.27;16.40;;;;;;;12.35;48.29;100027.16;8317763;28;20531;-60
2022/03/18 09:00:07;;;;;;;19.80;15.90;;;;;;;12.30;48.86;100024.66;8317194;28;20425;-60
2022/03/18 09:04:10;;;;;;;17.80;15.30;;;;;;;12.41;49.02;100022.69;8317080;28;20239;-60
2022/03/18 09:08:14;;;;;;;17.77;15.20;;;;;;;12.31;48.70;100029.81;8316613;28;20244;-60
2022/03/18 09:12:20;;;;;;;20.27;16.03;;;;;;;12.53;48.57;100026.81;8316921;28;20233;-60
2022/03/18 09:16:23;;;;;;;19.13;15.40;;;;;;;12.38;48.57;100038.38;8316713;28;20424;-60
2022/03/18 09:20:35;;;;;;;17.27;15.47;;;;;;;11.88;49.79;100047.84;8316089;28;20224;-60
2022/03/18 09:24:39;;;;;;;18.47;16.37;;;;;;;12.10;48.61;100040.59;8316278;28;20233;-61
2022/03/18 09:28:43;;;;;;;18.07;15.40;;;;;;;12.41;48.18;100050.44;8316163;28;20237;-61
2022/03/18 09:32:46;;;;;;;17.93;14.60;;;;;;;12.58;47.70;100043.16;8316200;28;20232;-61
2022/03/18 09:36:49;;;;;;;17.70;15.80;;;;;;;13.04;46.88;100049.19;8315795;28;20427;-61
2022/03/18 09:40:53;;;;;;;17.73;14.60;;;;;;;13.48;45.81;100042.19;8316160;28;20232;-61
2022/03/18 09:45:13;;;;;;;17.77;13.37;;;;;;;14.10;44.63;100057.16;8315758;28;20344;-61
2022/03/18 09:49:17;;;;;;;16.60;13.80;;;;;;;14.38;43.60;100048.63;8315906;28;20240;-61
2022/03/18 09:53:20;;;;;;;16.47;14.30;;;;;;;14.00;44.75;100055.69;8314325;28;20283;-61
2022/03/18 09:57:23;;;;;;;16.27;13.70;;;;;;;14.79;43.31;100060.56;8315699;28;20233;-61
2022/03/18 10:01:27;;;;;;;13.90;11.30;;;;;;;15.01;54.43;100063.41;8312000;28;20232;-62
2022/03/18 10:05:33;;;;;;;18.00;14.50;;;;;;;15.96;47.21;100069.22;8314060;28;20232;-59
2022/03/18 10:09:37;;;;;;;18.53;14.97;;;;;;;16.52;41.89;100074.25;8313813;28;20241;-59
2022/03/18 10:13:50;;;;;;;19.07;16.87;;;;;;;16.78;39.87;100070.72;8315061;28;20232;-60
2022/03/18 10:17:56;;;;;;;22.87;18.53;;;;;;;15.19;40.58;100079.41;8314986;28;20229;-60
2022/03/18 10:22:00;;;;;;;22.17;19.83;;;;;;;14.71;42.41;100072.94;8314919;28;20232;-60
2022/03/18 10:26:03;;;;;;;25.47;17.20;;;;;;;14.88;42.50;100076.84;8314878;28;20404;-60
2022/03/18 10:30:22;;;;;;;19.33;17.23;;;;;;;15.60;40.10;100083.38;8314795;28;20239;-60
2022/03/18 10:38:58;;;;;;;21.90;19.47;;;;;;;15.61;39.80;100065.94;8314278;28;20228;-59
2022/03/18 10:43:04;;;;;;;23.60;20.67;;;;;;;15.04;41.47;100071.16;8314325;28;20247;-60
2022/03/18 10:47:07;;;;;;;25.87;20.73;;;;;;;14.88;41.71;100077.69;8281921;28;20266;-59
2022/03/18 10:51:11;;;;;;;21.23;18.90;;;;;;;15.37;41.49;100076.25;8282001;28;20243;-59
2022/03/18 10:55:19;;;;;;;23.17;18.10;;;;;;;15.43;40.94;100072.59;8281994;28;20229;-60
2022/03/18 10:59:24;;;;;;;21.07;17.67;;;;;;;15.09;42.22;100077.97;8281727;28;20241;-59
2022/03/18 11:03:34;;;;;;;21.27;17.97;;;;;;;14.89;42.13;100081.16;8281175;28;20236;-60
2022/03/18 11:07:41;;;;;;;21.60;18.30;;;;;;;15.21;41.50;100086.31;8287245;28;20292;-59
2022/03/18 11:11:45;;;;;;;21.80;17.93;;;;;;;15.31;40.46;100092.09;8287847;28;20348;-60
2022/03/18 11:15:50;;;;;;;22.20;19.83;;;;;;;14.97;40.52;100080.03;8287903;28;20257;-60
2022/03/18 11:19:53;;;;;;;23.00;18.63;;;;;;;15.20;40.38;100081.13;8287782;28;20253;-59
2022/03/18 11:23:58;;;;;;;20.17;18.03;;;;;;;16.18;39.81;100079.78;8287774;28;20230;-60
2022/03/18 11:28:01;;;;;;;21.67;18.10;;;;;;;15.87;39.87;100082.59;8287367;28;20253;-60
2022/03/18 11:32:20;;;;;;;25.50;21.63;;;;;;;15.79;39.78;100083.69;8287073;28;20234;-60
2022/03/18 11:36:24;;;;;;;26.03;20.70;;;;;;;15.73;40.02;100083.00;8314852;28;20299;-60
2022/03/18 11:40:33;;;;;;;24.77;21.70;;;;;;;15.82;39.43;100077.50;8319902;28;20237;-59
2022/03/18 11:44:40;;;;;;;25.87;21.27;;;;;;;15.66;39.88;100084.94;8312666;28;20256;-60
2022/03/18 11:48:46;;;;;;;28.67;21.43;;;;;;;15.59;40.84;100084.28;8312605;28;20236;-59
2022/03/18 11:52:57;;;;;;;24.03;20.77;;;;;;;15.30;40.96;100073.88;8319175;28;20252;-59
2022/03/18 11:57:05;;;;;;;23.63;21.13;;;;;;;15.54;40.37;100069.66;8319342;28;20517;-59
2022/03/18 12:01:45;;;;;;;23.07;20.57;;;;;;;15.09;41.13;100068.38;8319104;28;20427;-59
2022/03/18 12:05:54;;;;;;;23.60;20.43;;;;;;;15.19;41.82;100071.56;8318490;28;20228;-59
2022/03/18 12:09:58;;;;;;;24.97;22.27;;;;;;;15.76;40.30;100073.34;8318174;28;20237;-59
2022/03/18 12:14:03;;;;;;;26.50;23.80;;;;;;;14.94;40.55;100079.28;8318409;28;20304;-59
2022/03/18 12:18:07;;;;;;;22.80;20.43;;;;;;;15.41;41.22;100080.47;8318078;28;20229;-60
2022/03/18 12:22:30;;;;;;;26.83;20.90;;;;;;;16.26;39.52;100072.56;8318124;28;20569;-59
2022/03/18 12:26:35;;;;;;;26.63;22.93;;;;;;;15.72;39.31;100073.44;8317778;28;20228;-58
2022/03/18 12:30:40;;;;;;;24.97;22.37;;;;;;;15.67;39.78;100078.81;8317933;28;20249;-57
2022/03/18 12:34:48;;;;;;;24.67;22.10;;;;;;;15.77;39.64;100077.66;8317851;28;20229;-57
2022/03/18 12:38:51;;;;;;;24.90;22.40;;;;;;;15.81;40.14;100079.25;8316944;28;20245;-59
2022/03/18 12:42:56;;;;;;;25.63;22.80;;;;;;;16.09;39.18;100077.47;8317878;28;20237;-59
2022/03/18 12:47:01;;;;;;;25.50;22.90;;;;;;;16.13;39.57;100072.13;8317506;28;20523;-60
2022/03/18 12:51:05;;;;;;;25.13;22.47;;;;;;;16.69;38.52;100078.03;8317539;28;20253;-60
2022/03/18 12:55:09;;;;;;;29.43;25.53;;;;;;;15.40;39.41;100078.78;8317445;28;20233;-60
2022/03/18 12:59:16;;;;;;;28.37;25.33;;;;;;;15.47;39.47;100070.75;8317428;28;20228;-60
2022/03/18 13:03:23;;;;;;;26.10;23.60;;;;;;;16.20;39.14;100073.63;8317042;28;20414;-59
2022/03/18 13:07:27;;;;;;;24.90;22.40;;;;;;;16.64;37.88;100072.13;8317017;28;20241;-60
2022/03/18 13:11:39;;;;;;;27.60;24.73;;;;;;;16.59;38.06;100073.13;8316238;28;20239;-60
2022/03/18 13:15:44;;;;;;;27.33;24.63;;;;;;;16.68;37.18;100061.50;8317095;28;20235;-64
2022/03/18 13:19:51;;;;;;;27.97;24.40;;;;;;;16.02;38.48;100072.47;8316987;28;20232;-62
2022/03/18 13:23:54;;;;;;;26.77;24.07;;;;;;;16.51;38.00;100069.09;8316652;28;20228;-64
2022/03/18 13:27:57;;;;;;;27.00;24.00;;;;;;;16.63;38.13;100058.19;8315865;28;20233;-65
2022/03/18 13:36:29;;;;;;;26.67;23.77;;;;;;;16.08;39.34;100062.72;8316240;28;20235;-64
2022/03/18 13:40:32;;;;;;;30.60;25.73;;;;;;;15.72;39.08;100049.94;8315671;28;20232;-64
2022/03/18 13:44:46;;;;;;;27.77;25.00;;;;;;;15.90;39.13;100052.00;8315710;28;20241;-64
2022/03/18 13:48:53;;;;;;;28.70;25.60;;;;;;;15.73;39.59;100055.16;8315752;28;20433;-63
2022/03/18 13:52:58;;;;;;;27.23;24.07;;;;;;;15.66;40.14;100048.38;8315491;28;20232;-63
2022/03/18 13:57:03;;;;;;;30.47;25.43;;;;;;;15.51;40.80;100057.53;8315507;28;20245;-63
2022/03/18 14:01:08;;;;;;;28.87;25.77;;;;;;;14.99;41.73;100056.53;8315459;28;20232;-63
2022/03/18 14:05:21;;;;;;;28.00;24.97;;;;;;;15.22;41.41;100048.00;8315351;28;20266;-63
2022/03/18 14:09:25;;;;;;;28.87;25.80;;;;;;;14.89;41.67;100048.13;8314992;28;20236;-63
2022/03/18 14:13:30;;;;;;;28.00;25.10;;;;;;;15.00;41.64;100055.59;8315044;28;20243;-63
2022/03/18 14:17:33;;;;;;;31.13;26.80;;;;;;;15.18;41.34;100043.78;8314652;28;20304;-63
2022/03/18 14:21:41;;;;;;;31.53;27.70;;;;;;;15.58;40.61;100050.38;8315101;28;20255;-64
2022/03/18 14:25:45;;;;;;;29.63;26.57;;;;;;;15.48;39.97;100041.13;8314923;28;20232;-64
2022/03/18 14:29:48;;;;;;;30.17;27.07;;;;;;;15.60;39.94;100036.38;8314570;28;20237;-62
2022/03/18 14:33:52;;;;;;;29.63;26.47;;;;;;;15.30;39.90;100029.50;8314515;28;20528;-62
2022/03/18 14:37:57;;;;;;;30.60;27.30;;;;;;;15.41;40.03;100028.25;8315127;28;20239;-62
2022/03/18 14:42:01;;;;;;;32.33;28.67;;;;;;;15.50;39.71;100034.09;8321454;28;20427;-62
2022/03/18 14:46:04;;;;;;;33.10;28.80;;;;;;;15.22;40.11;100030.59;8321323;28;20236;-62
2022/03/18 14:50:09;;;;;;;30.13;27.13;;;;;;;15.20;40.25;100032.38;8321318;28;20229;-62
2022/03/18 14:54:14;;;;;;;29.03;25.97;;;;;;;15.77;40.15;100033.25;8321346;28;20236;-61
2022/03/18 14:58:18;;;;;;;31.97;27.93;;;;;;;15.56;40.27;100029.53;8321021;28;20228;-62
2022/03/18 15:02:22;;;;;;;30.43;27.20;;;;;;;15.55;40.42;100027.81;8320946;28;20240;-62
2022/03/18 15:06:27;;;;;;;36.30;28.23;;;;;;;15.19;41.02;100041.13;8321031;28;20414;-62
2022/03/18 15:10:31;;;;;;;31.70;28.43;;;;;;;14.91;40.93;100032.41;8321067;28;20244;-62
2022/03/18 15:14:36;;;;;;;32.00;28.67;;;;;;;14.85;41.25;100038.69;8320076;28;20236;-63
2022/03/18 15:18:39;;;;;;;32.23;28.83;;;;;;;15.04;41.09;100042.44;8319921;28;20239;-61
2022/03/18 15:22:42;;;;;;;33.90;30.20;;;;;;;15.00;41.38;100045.16;8320331;28;20417;-64
2022/03/18 15:26:45;;;;;;;35.50;29.70;;;;;;;14.78;41.65;100040.59;8320295;28;20233;-67
2022/03/18 15:30:49;;;;;;;32.40;27.47;;;;;;;14.80;41.63;100043.16;8319747;28;20236;-63
2022/03/18 15:34:55;;;;;;;33.87;29.00;;;;;;;14.90;41.74;100041.13;8319532;28;20232;-67
2022/03/18 15:38:58;;;;;;;34.00;30.40;;;;;;;14.52;41.83;100037.81;8319694;28;20540;-65
2022/03/18 15:43:02;;;;;;;34.47;30.77;;;;;;;14.58;41.72;100040.28;8319653;28;20240;-64
2022/03/18 15:47:06;;;;;;;32.77;29.47;;;;;;;14.56;42.02;100048.13;8319181;28;20240;-65
2022/03/18 15:51:09;;;;;;;34.47;30.77;;;;;;;14.76;41.63;100049.38;8318484;28;20445;-65
2022/03/18 15:55:12;;;;;;;33.57;29.90;;;;;;;14.61;42.05;100046.28;8319128;28;20243;-65
2022/03/18 15:59:16;;;;;;;34.07;30.13;;;;;;;14.43;42.56;100045.00;8319076;28;20236;-66
2022/03/18 16:03:21;;;;;;;35.97;32.10;;;;;;;14.14;43.04;100052.72;8318724;28;20235;-65
2022/03/18 16:07:24;;;;;;;34.37;30.80;;;;;;;14.25;43.61;100055.91;8318895;28;20290;-65
2022/03/18 16:11:28;;;;;;;38.27;34.30;;;;;;;13.78;44.39;100063.16;8318160;28;20252;-65
2022/03/18 16:15:33;;;;;;;35.63;31.80;;;;;;;13.86;44.34;100066.47;8318312;28;20235;-65
2022/03/18 16:19:40;;;;;;;38.00;34.03;;;;;;;13.27;45.29;100077.31;8309940;28;20414;-66
2022/03/18 16:23:47;;;;;;;38.13;34.07;;;;;;;13.12;46.08;100073.31;8301434;28;20233;-65
2022/03/18 16:27:51;;;;;;;42.10;35.63;;;;;;;13.03;46.13;100089.09;8301377;28;20256;-66
2022/03/18 16:31:55;;;;;;;41.93;36.47;;;;;;;12.64;46.90;100083.78;8301322;28;20427;-66
2022/03/18 16:36:01;;;;;;;39.50;35.40;;;;;;;12.87;46.84;100089.41;8304026;28;20239;-65
2022/03/18 16:40:05;;;;;;;40.40;34.57;;;;;;;12.92;46.90;100097.09;8300635;28;20225;-65
2022/03/18 16:44:08;;;;;;;40.37;36.07;;;;;;;12.74;46.99;100105.25;8312885;28;20628;-64
2022/03/18 16:52:34;;;;;;;43.37;37.83;;;;;;;12.33;47.94;100111.19;8316705;28;20233;-64
2022/03/18 16:56:37;;;;;;;44.20;39.10;;;;;;;12.46;47.98;100123.97;8303554;28;20244;-64
2022/03/18 17:00:40;;;;;;;42.83;38.43;;;;;;;12.41;48.07;100142.22;8301557;28;20233;-64
2022/03/18 17:04:45;;;;;;;48.27;40.67;;;;;;;12.05;48.93;100139.38;8316102;28;20537;-64
2022/03/18 17:08:49;;;;;;;43.30;38.63;;;;;;;12.14;48.77;100153.94;8316678;28;20243;-65
2022/03/18 17:12:52;;;;;;;48.37;40.30;;;;;;;11.96;49.56;100165.50;8316560;28;20424;-64
2022/03/18 17:16:55;;;;;;;46.73;39.97;;;;;;;11.78;49.51;100173.50;8284125;28;20241;-66
2022/03/18 17:20:58;;;;;;;46.97;40.23;;;;;;;11.53;49.75;100184.22;8310837;28;20229;-64
2022/03/18 17:25:03;;;;;;;47.93;40.47;;;;;;;11.43;49.85;100188.66;8304724;28;20229;-64
2022/03/18 17:29:06;;;;;;;48.93;39.77;;;;;;;11.25;50.58;100194.94;8299437;28;20224;-65
2022/03/18 17:33:09;;;;;;;50.30;40.23;;;;;;;11.49;49.75;100185.97;8299181;28;20233;-65
2022/03/18 17:37:13;;;;;;;45.93;39.23;;;;;;;11.11;50.66;100205.44;8300026;28;20229;-64
2022/03/18 17:41:18;;;;;;;46.40;40.07;;;;;;;11.05;51.36;100208.13;8298193;28;20328;-64
2022/03/18 17:45:21;;;;;;;46.17;40.70;;;;;;;10.90;51.79;100216.06;8298945;28;20424;-64
2022/03/18 17:49:25;;;;;;;43.53;38.13;;;;;;;11.19;50.63;100227.84;8298536;28;20229;-64
2022/03/18 17:53:27;;;;;;;47.33;40.00;;;;;;;11.18;50.61;100229.59;8298778;28;20228;-65
2022/03/18 17:57:32;;;;;;;45.73;39.67;;;;;;;11.26;50.56;100237.28;8298060;28;20233;-65
2022/03/18 18:01:35;;;;;;;47.17;40.33;;;;;;;11.25;50.39;100243.34;8297903;28;20227;-65
2022/03/18 18:05:38;;;;;;;46.53;39.83;;;;;;;11.37;50.30;100243.22;8295404;28;20246;-65
2022/03/18 18:09:41;;;;;;;45.77;39.67;;;;;;;11.11;50.40;100249.53;8295670;28;20240;-64
2022/03/18 18:13:46;;;;;;;53.60;42.80;;;;;;;10.77;51.67;100251.59;8297632;28;20237;-64
2022/03/18 18:17:50;;;;;;;45.70;40.50;;;;;;;11.06;50.73;100266.00;8307099;28;20245;-64
2022/03/18 18:22:00;;;;;;;48.23;41.83;;;;;;;11.19;50.50;100269.34;8314777;28;20515;-64
2022/03/18 18:26:03;;;;;;;52.20;43.47;;;;;;;10.94;50.85;100267.00;8314837;28;20581;-64
2022/03/18 18:30:09;;;;;;;49.73;41.97;;;;;;;11.21;49.70;100260.66;8314822;28;20229;-64
2022/03/18 18:34:12;;;;;;;48.23;41.47;;;;;;;11.14;50.04;100252.09;8314665;28;20397;-64
2022/03/18 18:38:16;;;;;;;52.77;41.67;;;;;;;11.25;49.75;100249.41;8314422;28;20229;-64
2022/03/18 18:42:19;;;;;;;50.57;42.33;;;;;;;11.31;49.52;100257.13;8314588;28;20233;-65
2022/03/18 18:46:24;;;;;;;50.10;42.90;;;;;;;11.12;50.10;100253.84;8300692;28;20236;-64
2022/03/18 18:50:27;;;;;;;50.33;41.00;;;;;;;11.20;50.19;100258.13;8284381;28;20307;-64
2022/03/18 18:54:31;;;;;;;54.43;43.90;;;;;;;10.79;51.06;100259.34;8309595;28;20236;-64
2022/03/18 18:58:34;;;;;;;53.50;42.37;;;;;;;10.82;50.87;100259.34;8312603;28;20225;-64
2022/03/18 19:02:38;;;;;;;53.30;43.37;;;;;;;10.72;51.43;100263.75;8288263;28;20427;-65